sensor_id;sensor_type;location;lat;lon;timestamp;pressure;altitude;pressure_sealevel;temperature;humidity
10135;BME280;5107;48.850;8.924;2022-07-01T00:00:21;96944.91;;;13.69;86.01
10135;BME280;5107;48.850;8.924;2022-07-01T00:02:49;96950.19;;;13.69;86.52
10135;BME280;5107;48.850;8.924;2022-07-01T00:05:17;96950.38;;;13.67;86.14
10135;BME280;5107;48.850;8.924;2022-07-01T00:07:44;96955.84;;;13.66;86.46
10135;BME280;5107;48.850;8.924;2022-07-01T00:10:12;96949.94;;;13.64;85.74
10135;BME280;5107;48.850;8.924;2022-07-01T00:12:39;96942.00;;;13.64;86.17
10135;BME280;5107;48.850;8.924;2022-07-01T00:15:07;96939.78;;;13.67;86.43
10135;BME280;5107;48.850;8.924;2022-07-01T00:17:35;96929.13;;;13.76;87.07
10135;BME280;5107;48.850;8.924;2022-07-01T00:20:04;96945.16;;;13.74;86.41
10135;BME280;5107;48.850;8.924;2022-07-01T00:22:32;96954.38;;;13.78;86.34
10135;BME280;5107;48.850;8.924;2022-07-01T00:24:59;96948.72;;;13.81;86.22
10135;BME280;5107;48.850;8.924;2022-07-01T00:27:27;96943.97;;;13.91;87.09
10135;BME280;5107;48.850;8.924;2022-07-01T00:29:54;96952.19;;;13.96;86.81
10135;BME280;5107;48.850;8.924;2022-07-01T00:32:21;96961.19;;;14.02;86.81
10135;BME280;5107;48.850;8.924;2022-07-01T00:34:48;96960.28;;;14.10;86.58
10135;BME280;5107;48.850;8.924;2022-07-01T00:37:15;96956.50;;;14.19;87.43
10135;BME280;5107;48.850;8.924;2022-07-01T00:39:44;96947.63;;;14.26;87.60
10135;BME280;5107;48.850;8.924;2022-07-01T00:42:11;96941.53;;;14.26;86.08
10135;BME280;5107;48.850;8.924;2022-07-01T00:44:38;96942.81;;;14.15;85.82
10135;BME280;5107;48.850;8.924;2022-07-01T00:47:10;96946.13;;;14.02;86.22
10135;BME280;5107;48.850;8.924;2022-07-01T00:49:38;96952.78;;;13.98;86.62
10135;BME280;5107;48.850;8.924;2022-07-01T00:52:07;96952.00;;;13.83;86.09
10135;BME280;5107;48.850;8.924;2022-07-01T00:54:37;96953.09;;;13.74;86.88
10135;BME280;5107;48.850;8.924;2022-07-01T00:57:08;96947.72;;;13.67;86.71
10135;BME280;5107;48.850;8.924;2022-07-01T00:59:36;96952.28;;;13.74;87.42
10135;BME280;5107;48.850;8.924;2022-07-01T01:02:06;96947.09;;;13.80;87.50
10135;BME280;5107;48.850;8.924;2022-07-01T01:04:33;96950.81;;;13.86;87.11
10135;BME280;5107;48.850;8.924;2022-07-01T01:07:01;96948.59;;;13.89;87.20
10135;BME280;5107;48.850;8.924;2022-07-01T01:09:29;96948.28;;;13.78;86.74
10135;BME280;5107;48.850;8.924;2022-07-01T01:11:56;96949.34;;;13.83;87.29
10135;BME280;5107;48.850;8.924;2022-07-01T01:14:26;96938.41;;;13.86;87.56
10135;BME280;5107;48.850;8.924;2022-07-01T01:16:53;96954.09;;;13.88;87.02
10135;BME280;5107;48.850;8.924;2022-07-01T01:19:20;96943.31;;;13.89;87.80
10135;BME280;5107;48.850;8.924;2022-07-01T01:21:48;96932.47;;;13.84;86.90
10135;BME280;5107;48.850;8.924;2022-07-01T01:24:16;96927.03;;;13.71;87.25
10135;BME280;5107;48.850;8.924;2022-07-01T01:26:43;96928.94;;;13.62;87.39
10135;BME280;5107;48.850;8.924;2022-07-01T01:29:11;96914.72;;;13.63;88.56
10135;BME280;5107;48.850;8.924;2022-07-01T01:31:38;96909.06;;;13.66;88.90
10135;BME280;5107;48.850;8.924;2022-07-01T01:34:05;96914.91;;;13.62;88.55
10135;BME280;5107;48.850;8.924;2022-07-01T01:36:32;96919.56;;;13.60;89.02
10135;BME280;5107;48.850;8.924;2022-07-01T01:39:01;96914.81;;;13.70;89.71
10135;BME280;5107;48.850;8.924;2022-07-01T01:41:31;96927.38;;;13.68;89.46
10135;BME280;5107;48.850;8.924;2022-07-01T01:43:58;96929.47;;;13.73;89.85
10135;BME280;5107;48.850;8.924;2022-07-01T01:46:25;96931.22;;;13.65;89.46
10135;BME280;5107;48.850;8.924;2022-07-01T01:48:54;96924.19;;;13.73;90.07
10135;BME280;5107;48.850;8.924;2022-07-01T01:51:21;96916.56;;;13.63;89.27
10135;BME280;5107;48.850;8.924;2022-07-01T01:53:49;96903.34;;;13.63;89.71
10135;BME280;5107;48.850;8.924;2022-07-01T01:56:18;96902.03;;;13.59;90.24
10135;BME280;5107;48.850;8.924;2022-07-01T01:58:45;96880.91;;;13.59;90.21
10135;BME280;5107;48.850;8.924;2022-07-01T02:01:12;96869.56;;;13.65;90.34
10135;BME280;5107;48.850;8.924;2022-07-01T02:03:41;96857.09;;;13.59;89.84
10135;BME280;5107;48.850;8.924;2022-07-01T02:06:10;96856.56;;;13.49;89.94
10135;BME280;5107;48.850;8.924;2022-07-01T02:08:37;96857.19;;;13.51;90.09
10135;BME280;5107;48.850;8.924;2022-07-01T02:11:05;96858.94;;;13.44;90.10
10135;BME280;5107;48.850;8.924;2022-07-01T02:13:35;96853.13;;;13.34;90.53
10135;BME280;5107;48.850;8.924;2022-07-01T02:16:03;96837.91;;;13.36;90.74
10135;BME280;5107;48.850;8.924;2022-07-01T02:18:31;96842.94;;;13.31;90.70
10135;BME280;5107;48.850;8.924;2022-07-01T02:20:59;96842.28;;;13.28;90.83
10135;BME280;5107;48.850;8.924;2022-07-01T02:23:26;96846.28;;;13.24;90.89
10135;BME280;5107;48.850;8.924;2022-07-01T02:25:55;96844.84;;;13.22;90.65
10135;BME280;5107;48.850;8.924;2022-07-01T02:28:22;96842.38;;;13.20;90.54
10135;BME280;5107;48.850;8.924;2022-07-01T02:30:50;96847.19;;;13.17;90.63
10135;BME280;5107;48.850;8.924;2022-07-01T02:33:18;96856.28;;;13.14;91.01
10135;BME280;5107;48.850;8.924;2022-07-01T02:35:45;96846.91;;;13.12;91.02
10135;BME280;5107;48.850;8.924;2022-07-01T02:38:12;96851.72;;;13.08;91.23
10135;BME280;5107;48.850;8.924;2022-07-01T02:40:39;96852.88;;;13.06;91.61
10135;BME280;5107;48.850;8.924;2022-07-01T02:43:07;96861.38;;;13.01;91.42
10135;BME280;5107;48.850;8.924;2022-07-01T02:45:34;96857.91;;;13.01;91.46
10135;BME280;5107;48.850;8.924;2022-07-01T02:48:03;96859.56;;;13.02;91.54
10135;BME280;5107;48.850;8.924;2022-07-01T02:50:31;96859.09;;;12.98;91.77
10135;BME280;5107;48.850;8.924;2022-07-01T02:52:58;96862.38;;;13.00;91.97
10135;BME280;5107;48.850;8.924;2022-07-01T02:55:26;96860.72;;;12.99;91.86
10135;BME280;5107;48.850;8.924;2022-07-01T02:57:55;96857.66;;;12.96;91.82
10135;BME280;5107;48.850;8.924;2022-07-01T03:00:24;96854.34;;;12.93;91.76
10135;BME280;5107;48.850;8.924;2022-07-01T03:02:51;96862.44;;;12.92;91.64
10135;BME280;5107;48.850;8.924;2022-07-01T03:05:20;96861.38;;;12.86;91.44
10135;BME280;5107;48.850;8.924;2022-07-01T03:07:47;96859.53;;;12.87;91.77
10135;BME280;5107;48.850;8.924;2022-07-01T03:10:14;96857.16;;;12.92;92.03
10135;BME280;5107;48.850;8.924;2022-07-01T03:12:41;96868.72;;;12.91;91.69
10135;BME280;5107;48.850;8.924;2022-07-01T03:15:10;96871.84;;;12.95;91.04
10135;BME280;5107;48.850;8.924;2022-07-01T03:17:39;96867.91;;;12.90;91.19
10135;BME280;5107;48.850;8.924;2022-07-01T03:20:09;96864.81;;;12.87;91.03
10135;BME280;5107;48.850;8.924;2022-07-01T03:22:39;96850.81;;;12.86;90.74
10135;BME280;5107;48.850;8.924;2022-07-01T03:25:08;96847.97;;;12.88;90.74
10135;BME280;5107;48.850;8.924;2022-07-01T03:27:36;96854.25;;;12.87;91.22
10135;BME280;5107;48.850;8.924;2022-07-01T03:30:05;96851.97;;;12.84;91.19
10135;BME280;5107;48.850;8.924;2022-07-01T03:32:33;96872.75;;;12.87;91.30
10135;BME280;5107;48.850;8.924;2022-07-01T03:35:00;96895.31;;;12.89;91.39
10135;BME280;5107;48.850;8.924;2022-07-01T03:37:50;96897.03;;;12.82;90.91
10135;BME280;5107;48.850;8.924;2022-07-01T03:40:17;96909.41;;;12.82;90.53
10135;BME280;5107;48.850;8.924;2022-07-01T03:42:44;96918.00;;;12.84;90.84
10135;BME280;5107;48.850;8.924;2022-07-01T03:45:11;96914.69;;;12.82;90.72
10135;BME280;5107;48.850;8.924;2022-07-01T03:47:45;96908.50;;;12.75;89.83
10135;BME280;5107;48.850;8.924;2022-07-01T03:50:12;96920.22;;;12.72;90.04
10135;BME280;5107;48.850;8.924;2022-07-01T03:52:39;96921.88;;;12.73;90.08
10135;BME280;5107;48.850;8.924;2022-07-01T03:55:10;96925.81;;;12.77;90.23
10135;BME280;5107;48.850;8.924;2022-07-01T03:57:37;96937.53;;;12.75;89.88
10135;BME280;5107;48.850;8.924;2022-07-01T04:00:06;96933.63;;;12.71;89.68
10135;BME280;5107;48.850;8.924;2022-07-01T04:02:34;96939.53;;;12.73;90.31
10135;BME280;5107;48.850;8.924;2022-07-01T04:05:01;96957.34;;;12.79;90.10
10135;BME280;5107;48.850;8.924;2022-07-01T04:07:28;96963.28;;;12.73;89.56
10135;BME280;5107;48.850;8.924;2022-07-01T04:09:55;96968.13;;;12.69;89.65
10135;BME280;5107;48.850;8.924;2022-07-01T04:12:24;96968.94;;;12.70;89.84
10135;BME280;5107;48.850;8.924;2022-07-01T04:14:51;96991.41;;;12.66;89.83
10135;BME280;5107;48.850;8.924;2022-07-01T04:17:18;96997.00;;;12.71;90.34
10135;BME280;5107;48.850;8.924;2022-07-01T04:19:45;96995.53;;;12.68;90.26
10135;BME280;5107;48.850;8.924;2022-07-01T04:22:12;97001.63;;;12.69;90.16
10135;BME280;5107;48.850;8.924;2022-07-01T04:24:57;96999.31;;;12.66;90.00
10135;BME280;5107;48.850;8.924;2022-07-01T04:27:25;96994.88;;;12.66;90.08
10135;BME280;5107;48.850;8.924;2022-07-01T04:29:52;96993.72;;;12.69;89.98
10135;BME280;5107;48.850;8.924;2022-07-01T04:32:19;97003.09;;;12.71;90.02
10135;BME280;5107;48.850;8.924;2022-07-01T04:34:47;97009.31;;;12.78;89.97
10135;BME280;5107;48.850;8.924;2022-07-01T04:37:14;97008.84;;;12.75;89.82
10135;BME280;5107;48.850;8.924;2022-07-01T04:39:41;97026.34;;;12.76;89.54
10135;BME280;5107;48.850;8.924;2022-07-01T04:42:08;97024.69;;;12.75;90.13
10135;BME280;5107;48.850;8.924;2022-07-01T04:44:37;97031.28;;;12.79;89.90
10135;BME280;5107;48.850;8.924;2022-07-01T04:47:05;97022.63;;;12.85;90.48
10135;BME280;5107;48.850;8.924;2022-07-01T04:49:32;97015.38;;;12.87;89.92
10135;BME280;5107;48.850;8.924;2022-07-01T04:51:59;97018.34;;;12.84;89.92
10135;BME280;5107;48.850;8.924;2022-07-01T04:54:27;97013.56;;;12.87;90.24
10135;BME280;5107;48.850;8.924;2022-07-01T04:56:54;97015.81;;;12.90;90.65
10135;BME280;5107;48.850;8.924;2022-07-01T04:59:21;97016.66;;;12.91;90.95
10135;BME280;5107;48.850;8.924;2022-07-01T05:01:50;97025.88;;;12.95;90.82
10135;BME280;5107;48.850;8.924;2022-07-01T05:04:17;97018.59;;;12.97;90.60
10135;BME280;5107;48.850;8.924;2022-07-01T05:06:45;97012.28;;;12.98;91.12
10135;BME280;5107;48.850;8.924;2022-07-01T05:09:13;97011.94;;;13.01;90.83
10135;BME280;5107;48.850;8.924;2022-07-01T05:11:40;97011.94;;;13.01;91.13
10135;BME280;5107;48.850;8.924;2022-07-01T05:14:08;97016.22;;;13.02;90.42
10135;BME280;5107;48.850;8.924;2022-07-01T05:16:35;97022.19;;;13.04;91.07
10135;BME280;5107;48.850;8.924;2022-07-01T05:19:04;97025.50;;;12.98;91.17
10135;BME280;5107;48.850;8.924;2022-07-01T05:21:49;97023.88;;;12.97;91.28
10135;BME280;5107;48.850;8.924;2022-07-01T05:24:29;97024.16;;;13.02;91.84
10135;BME280;5107;48.850;8.924;2022-07-01T05:26:57;97017.41;;;13.00;91.69
10135;BME280;5107;48.850;8.924;2022-07-01T05:29:24;97010.94;;;13.02;91.77
10135;BME280;5107;48.850;8.924;2022-07-01T05:31:51;97019.88;;;13.01;91.29
10135;BME280;5107;48.850;8.924;2022-07-01T05:34:20;97008.13;;;13.04;91.63
10135;BME280;5107;48.850;8.924;2022-07-01T05:36:47;97006.50;;;13.03;91.36
10135;BME280;5107;48.850;8.924;2022-07-01T05:39:14;97012.59;;;13.03;91.52
10135;BME280;5107;48.850;8.924;2022-07-01T05:41:41;97009.13;;;13.03;91.62
10135;BME280;5107;48.850;8.924;2022-07-01T05:44:09;97013.59;;;13.02;91.37
10135;BME280;5107;48.850;8.924;2022-07-01T05:46:36;97017.50;;;13.06;92.30
10135;BME280;5107;48.850;8.924;2022-07-01T05:49:03;97029.63;;;13.01;91.24
10135;BME280;5107;48.850;8.924;2022-07-01T05:51:32;97027.25;;;13.06;91.91
10135;BME280;5107;48.850;8.924;2022-07-01T05:53:59;97029.63;;;13.01;91.46
10135;BME280;5107;48.850;8.924;2022-07-01T05:56:26;97022.44;;;13.09;91.79
10135;BME280;5107;48.850;8.924;2022-07-01T05:58:53;97023.44;;;13.08;91.38
10135;BME280;5107;48.850;8.924;2022-07-01T06:01:21;97035.66;;;13.09;91.98
10135;BME280;5107;48.850;8.924;2022-07-01T06:03:48;97044.31;;;13.03;91.35
10135;BME280;5107;48.850;8.924;2022-07-01T06:06:15;97042.47;;;13.04;91.19
10135;BME280;5107;48.850;8.924;2022-07-01T06:08:45;97041.66;;;13.03;91.46
10135;BME280;5107;48.850;8.924;2022-07-01T06:11:12;97052.75;;;12.99;91.41
10135;BME280;5107;48.850;8.924;2022-07-01T06:13:40;97054.88;;;13.03;92.14
10135;BME280;5107;48.850;8.924;2022-07-01T06:16:07;97061.81;;;13.04;92.29
10135;BME280;5107;48.850;8.924;2022-07-01T06:18:35;97070.72;;;13.03;91.92
10135;BME280;5107;48.850;8.924;2022-07-01T06:21:02;97079.97;;;12.99;92.32
10135;BME280;5107;48.850;8.924;2022-07-01T06:23:29;97083.63;;;12.98;92.67
10135;BME280;5107;48.850;8.924;2022-07-01T06:25:57;97091.03;;;13.03;92.46
10135;BME280;5107;48.850;8.924;2022-07-01T06:28:25;97091.16;;;13.09;92.82
10135;BME280;5107;48.850;8.924;2022-07-01T06:30:56;97084.59;;;13.05;92.68
10135;BME280;5107;48.850;8.924;2022-07-01T06:33:23;97085.59;;;13.04;92.09
10135;BME280;5107;48.850;8.924;2022-07-01T06:35:51;97083.94;;;13.03;92.08
10135;BME280;5107;48.850;8.924;2022-07-01T06:38:18;97089.28;;;12.95;91.69
10135;BME280;5107;48.850;8.924;2022-07-01T06:40:45;97084.00;;;12.95;91.52
10135;BME280;5107;48.850;8.924;2022-07-01T06:43:34;97075.41;;;12.93;92.00
10135;BME280;5107;48.850;8.924;2022-07-01T06:46:02;97073.09;;;12.90;91.66
10135;BME280;5107;48.850;8.924;2022-07-01T06:48:31;97077.34;;;12.99;92.52
10135;BME280;5107;48.850;8.924;2022-07-01T06:50:58;97069.72;;;13.04;92.91
10135;BME280;5107;48.850;8.924;2022-07-01T06:53:25;97073.19;;;13.05;92.24
10135;BME280;5107;48.850;8.924;2022-07-01T06:55:52;97073.53;;;13.02;92.21
10135;BME280;5107;48.850;8.924;2022-07-01T06:58:19;97079.09;;;13.07;91.79
10135;BME280;5107;48.850;8.924;2022-07-01T07:00:48;97087.81;;;13.15;92.23
10135;BME280;5107;48.850;8.924;2022-07-01T07:03:15;97089.78;;;13.21;92.34
10135;BME280;5107;48.850;8.924;2022-07-01T07:05:42;97090.72;;;13.28;92.07
10135;BME280;5107;48.850;8.924;2022-07-01T07:08:09;97100.28;;;13.29;91.88
10135;BME280;5107;48.850;8.924;2022-07-01T07:10:36;97097.28;;;13.33;91.91
10135;BME280;5107;48.850;8.924;2022-07-01T07:13:04;97094.94;;;13.38;91.53
10135;BME280;5107;48.850;8.924;2022-07-01T07:15:31;97101.81;;;13.47;91.51
10135;BME280;5107;48.850;8.924;2022-07-01T07:17:59;97103.66;;;13.61;91.71
10135;BME280;5107;48.850;8.924;2022-07-01T07:20:27;97107.56;;;13.65;91.20
10135;BME280;5107;48.850;8.924;2022-07-01T07:22:54;97102.41;;;13.72;90.85
10135;BME280;5107;48.850;8.924;2022-07-01T07:25:21;97107.16;;;13.76;90.14
10135;BME280;5107;48.850;8.924;2022-07-01T07:27:48;97100.88;;;13.77;89.49
10135;BME280;5107;48.850;8.924;2022-07-01T07:30:16;97118.91;;;13.74;89.53
10135;BME280;5107;48.850;8.924;2022-07-01T07:32:43;97124.75;;;13.69;89.29
10135;BME280;5107;48.850;8.924;2022-07-01T07:35:12;97132.84;;;13.67;89.81
10135;BME280;5107;48.850;8.924;2022-07-01T07:37:40;97143.31;;;13.61;89.50
10135;BME280;5107;48.850;8.924;2022-07-01T07:40:10;97144.72;;;13.49;89.70
10135;BME280;5107;48.850;8.924;2022-07-01T07:42:38;97141.91;;;13.50;90.11
10135;BME280;5107;48.850;8.924;2022-07-01T07:45:07;97138.28;;;13.51;90.29
10135;BME280;5107;48.850;8.924;2022-07-01T07:47:35;97123.00;;;13.61;90.69
10135;BME280;5107;48.850;8.924;2022-07-01T07:50:04;97106.06;;;13.71;90.80
10135;BME280;5107;48.850;8.924;2022-07-01T07:52:33;97114.75;;;13.79;90.15
10135;BME280;5107;48.850;8.924;2022-07-01T07:55:00;97116.19;;;13.82;90.20
10135;BME280;5107;48.850;8.924;2022-07-01T07:57:28;97118.38;;;13.78;88.95
10135;BME280;5107;48.850;8.924;2022-07-01T07:59:55;97116.81;;;13.69;88.65
10135;BME280;5107;48.850;8.924;2022-07-01T08:02:22;97119.03;;;13.80;89.39
10135;BME280;5107;48.850;8.924;2022-07-01T08:04:49;97128.41;;;13.83;89.02
10135;BME280;5107;48.850;8.924;2022-07-01T08:07:17;97143.75;;;13.87;88.84
10135;BME280;5107;48.850;8.924;2022-07-01T08:09:45;97145.84;;;13.92;89.51
10135;BME280;5107;48.850;8.924;2022-07-01T08:12:15;97153.88;;;13.98;89.33
10135;BME280;5107;48.850;8.924;2022-07-01T08:14:43;97167.03;;;13.92;89.51
10135;BME280;5107;48.850;8.924;2022-07-01T08:17:10;97169.97;;;13.97;89.56
10135;BME280;5107;48.850;8.924;2022-07-01T08:19:38;97166.38;;;13.90;89.50
10135;BME280;5107;48.850;8.924;2022-07-01T08:22:05;97162.13;;;13.66;87.71
10135;BME280;5107;48.850;8.924;2022-07-01T08:24:32;97174.88;;;13.62;88.17
10135;BME280;5107;48.850;8.924;2022-07-01T08:27:02;97175.94;;;13.53;88.65
10135;BME280;5107;48.850;8.924;2022-07-01T08:29:29;97174.13;;;13.54;89.53
10135;BME280;5107;48.850;8.924;2022-07-01T08:31:56;97169.84;;;13.53;89.55
10135;BME280;5107;48.850;8.924;2022-07-01T08:34:23;97170.53;;;13.47;89.77
10135;BME280;5107;48.850;8.924;2022-07-01T08:36:50;97176.22;;;13.36;90.02
10135;BME280;5107;48.850;8.924;2022-07-01T08:39:17;97177.72;;;13.38;89.47
10135;BME280;5107;48.850;8.924;2022-07-01T08:41:44;97192.97;;;13.28;89.63
10135;BME280;5107;48.850;8.924;2022-07-01T08:44:13;97206.53;;;13.25;89.94
10135;BME280;5107;48.850;8.924;2022-07-01T08:46:41;97200.47;;;13.16;89.05
10135;BME280;5107;48.850;8.924;2022-07-01T08:49:08;97199.19;;;13.04;89.14
10135;BME280;5107;48.850;8.924;2022-07-01T08:51:35;97200.31;;;13.10;90.12
10135;BME280;5107;48.850;8.924;2022-07-01T08:54:02;97209.06;;;13.10;89.95
10135;BME280;5107;48.850;8.924;2022-07-01T08:56:29;97209.06;;;13.10;90.11
10135;BME280;5107;48.850;8.924;2022-07-01T08:59:13;97205.91;;;13.07;89.56
10135;BME280;5107;48.850;8.924;2022-07-01T09:01:55;97209.22;;;13.17;90.29
10135;BME280;5107;48.850;8.924;2022-07-01T09:04:23;97207.50;;;13.24;90.09
10135;BME280;5107;48.850;8.924;2022-07-01T09:06:50;97207.13;;;13.35;90.16
10135;BME280;5107;48.850;8.924;2022-07-01T09:09:19;97206.69;;;13.54;89.64
10135;BME280;5107;48.850;8.924;2022-07-01T09:11:49;97205.03;;;13.76;89.69
10135;BME280;5107;48.850;8.924;2022-07-01T09:14:23;97175.19;;;14.05;90.27
10135;BME280;5107;48.850;8.924;2022-07-01T09:16:53;97163.97;;;14.18;87.78
10135;BME280;5107;48.850;8.924;2022-07-01T09:19:22;97157.84;;;14.32;87.07
10135;BME280;5107;48.850;8.924;2022-07-01T09:21:50;97172.84;;;14.39;85.85
10135;BME280;5107;48.850;8.924;2022-07-01T09:24:28;97179.69;;;14.34;85.29
10135;BME280;5107;48.850;8.924;2022-07-01T09:26:58;97181.50;;;14.33;85.43
10135;BME280;5107;48.850;8.924;2022-07-01T09:29:29;97207.63;;;14.22;84.39
10135;BME280;5107;48.850;8.924;2022-07-01T09:32:00;97208.69;;;14.13;84.38
10135;BME280;5107;48.850;8.924;2022-07-01T09:34:33;97194.91;;;14.32;85.83
10135;BME280;5107;48.850;8.924;2022-07-01T09:37:01;97187.94;;;14.39;84.97
10135;BME280;5107;48.850;8.924;2022-07-01T09:39:28;97196.06;;;14.52;84.88
10135;BME280;5107;48.850;8.924;2022-07-01T09:41:57;97202.63;;;14.56;83.67
10135;BME280;5107;48.850;8.924;2022-07-01T09:44:24;97207.84;;;14.50;82.03
10135;BME280;5107;48.850;8.924;2022-07-01T09:46:57;97212.06;;;14.59;82.73
10135;BME280;5107;48.850;8.924;2022-07-01T09:49:26;97213.69;;;14.60;82.39
10135;BME280;5107;48.850;8.924;2022-07-01T09:51:53;97207.78;;;14.72;83.29
10135;BME280;5107;48.850;8.924;2022-07-01T09:54:21;97213.69;;;14.74;83.02
10135;BME280;5107;48.850;8.924;2022-07-01T09:56:48;97208.56;;;14.73;81.45
10135;BME280;5107;48.850;8.924;2022-07-01T09:59:15;97209.66;;;14.93;82.52
10135;BME280;5107;48.850;8.924;2022-07-01T10:01:44;97222.94;;;14.78;80.70
10135;BME280;5107;48.850;8.924;2022-07-01T10:04:14;97231.53;;;14.80;81.26
10135;BME280;5107;48.850;8.924;2022-07-01T10:07:07;97227.47;;;14.99;81.24
10135;BME280;5107;48.850;8.924;2022-07-01T10:09:59;97216.94;;;15.21;81.05
10135;BME280;5107;48.850;8.924;2022-07-01T10:12:41;97216.75;;;15.58;81.24
10135;BME280;5107;48.850;8.924;2022-07-01T10:15:11;97212.50;;;15.78;80.06
10135;BME280;5107;48.850;8.924;2022-07-01T10:17:44;97219.63;;;15.57;77.95
10135;BME280;5107;48.850;8.924;2022-07-01T10:20:15;97224.09;;;15.41;79.35
10135;BME280;5107;48.850;8.924;2022-07-01T10:22:44;97223.63;;;15.52;80.83
10135;BME280;5107;48.850;8.924;2022-07-01T10:25:40;97230.69;;;15.81;80.51
10135;BME280;5107;48.850;8.924;2022-07-01T10:28:29;97227.59;;;15.78;78.46
10135;BME280;5107;48.850;8.924;2022-07-01T10:31:09;97226.75;;;15.77;79.77
10135;BME280;5107;48.850;8.924;2022-07-01T10:33:47;97223.94;;;15.79;78.58
10135;BME280;5107;48.850;8.924;2022-07-01T10:36:24;97240.66;;;15.79;77.39
10135;BME280;5107;48.850;8.924;2022-07-01T10:39:13;97240.41;;;15.74;78.42
10135;BME280;5107;48.850;8.924;2022-07-01T10:42:04;97241.75;;;16.06;79.59
10135;BME280;5107;48.850;8.924;2022-07-01T10:44:33;97242.06;;;16.46;77.51
10135;BME280;5107;48.850;8.924;2022-07-01T10:47:05;97252.16;;;17.26;78.91
10135;BME280;5107;48.850;8.924;2022-07-01T10:49:57;97252.06;;;17.54;74.14
10135;BME280;5107;48.850;8.924;2022-07-01T10:52:26;97256.88;;;17.91;68.91
10135;BME280;5107;48.850;8.924;2022-07-01T10:54:55;97246.28;;;18.11;71.59
10135;BME280;5107;48.850;8.924;2022-07-01T10:57:40;97254.53;;;17.55;71.21
10135;BME280;5107;48.850;8.924;2022-07-01T11:00:33;97251.53;;;17.65;67.90
10135;BME280;5107;48.850;8.924;2022-07-01T11:03:16;97252.81;;;18.41;68.86
10135;BME280;5107;48.850;8.924;2022-07-01T11:05:46;97247.13;;;18.64;64.82
10135;BME280;5107;48.850;8.924;2022-07-01T11:08:15;97260.72;;;17.62;65.17
10135;BME280;5107;48.850;8.924;2022-07-01T11:10:43;97250.25;;;17.06;66.89
10135;BME280;5107;48.850;8.924;2022-07-01T11:13:13;97253.00;;;17.33;68.34
10135;BME280;5107;48.850;8.924;2022-07-01T11:15:44;97258.97;;;17.41;66.43
10135;BME280;5107;48.850;8.924;2022-07-01T11:18:14;97251.25;;;17.60;68.12
10135;BME280;5107;48.850;8.924;2022-07-01T11:20:41;97242.34;;;17.33;70.40
10135;BME280;5107;48.850;8.924;2022-07-01T11:23:09;97253.75;;;17.14;71.44
10135;BME280;5107;48.850;8.924;2022-07-01T11:25:37;97256.88;;;17.24;73.36
10135;BME280;5107;48.850;8.924;2022-07-01T11:28:04;97261.41;;;17.30;71.01
10135;BME280;5107;48.850;8.924;2022-07-01T11:30:32;97258.75;;;17.36;71.18
10135;BME280;5107;48.850;8.924;2022-07-01T11:32:59;97259.44;;;17.52;71.17
10135;BME280;5107;48.850;8.924;2022-07-01T11:35:29;97252.66;;;17.49;69.40
10135;BME280;5107;48.850;8.924;2022-07-01T11:38:16;97253.28;;;17.51;69.19
10135;BME280;5107;48.850;8.924;2022-07-01T11:41:04;97256.63;;;17.66;68.83
10135;BME280;5107;48.850;8.924;2022-07-01T11:43:34;97255.47;;;17.89;66.50
10135;BME280;5107;48.850;8.924;2022-07-01T11:46:04;97259.19;;;18.67;70.20
10135;BME280;5107;48.850;8.924;2022-07-01T11:48:38;97257.69;;;19.10;64.63
10135;BME280;5107;48.850;8.924;2022-07-01T11:51:10;97250.94;;;19.08;60.33
10135;BME280;5107;48.850;8.924;2022-07-01T11:53:41;97249.13;;;19.53;62.93
10135;BME280;5107;48.850;8.924;2022-07-01T11:56:10;97252.75;;;20.03;62.54
10135;BME280;5107;48.850;8.924;2022-07-01T11:58:48;97248.03;;;19.67;59.60
10135;BME280;5107;48.850;8.924;2022-07-01T12:01:27;97252.34;;;19.68;60.09
10135;BME280;5107;48.850;8.924;2022-07-01T12:03:58;97254.69;;;19.45;60.50
10135;BME280;5107;48.850;8.924;2022-07-01T12:06:26;97255.69;;;18.99;60.55
10135;BME280;5107;48.850;8.924;2022-07-01T12:08:55;97260.63;;;18.69;62.12
10135;BME280;5107;48.850;8.924;2022-07-01T12:11:25;97259.59;;;18.77;63.70
10135;BME280;5107;48.850;8.924;2022-07-01T12:13:54;97251.81;;;18.55;65.11
10135;BME280;5107;48.850;8.924;2022-07-01T12:16:23;97249.38;;;18.61;65.19
10135;BME280;5107;48.850;8.924;2022-07-01T12:18:57;97251.19;;;18.67;65.79
10135;BME280;5107;48.850;8.924;2022-07-01T12:21:26;97241.13;;;18.75;63.71
10135;BME280;5107;48.850;8.924;2022-07-01T12:24:09;97257.97;;;18.76;62.46
10135;BME280;5107;48.850;8.924;2022-07-01T12:26:50;97253.47;;;18.37;62.99
10135;BME280;5107;48.850;8.924;2022-07-01T12:29:20;97251.59;;;18.11;62.77
10135;BME280;5107;48.850;8.924;2022-07-01T12:32:00;97249.97;;;18.36;63.31
10135;BME280;5107;48.850;8.924;2022-07-01T12:34:43;97254.66;;;18.87;62.75
10135;BME280;5107;48.850;8.924;2022-07-01T12:37:13;97250.78;;;18.76;61.56
10135;BME280;5107;48.850;8.924;2022-07-01T12:39:46;97245.41;;;18.96;61.87
10135;BME280;5107;48.850;8.924;2022-07-01T12:42:24;97243.78;;;18.88;61.17
10135;BME280;5107;48.850;8.924;2022-07-01T12:44:52;97253.03;;;18.86;63.40
10135;BME280;5107;48.850;8.924;2022-07-01T12:47:23;97246.06;;;18.45;62.70
10135;BME280;5107;48.850;8.924;2022-07-01T12:50:08;97246.09;;;18.32;63.13
10135;BME280;5107;48.850;8.924;2022-07-01T12:52:37;97252.00;;;18.34;62.80
10135;BME280;5107;48.850;8.924;2022-07-01T12:55:16;97253.47;;;18.30;61.87
10135;BME280;5107;48.850;8.924;2022-07-01T12:57:46;97249.75;;;18.51;61.85
10135;BME280;5107;48.850;8.924;2022-07-01T13:00:15;97245.41;;;18.96;61.39
10135;BME280;5107;48.850;8.924;2022-07-01T13:02:43;97240.09;;;19.54;61.01
10135;BME280;5107;48.850;8.924;2022-07-01T13:05:10;97239.66;;;19.95;57.83
10135;BME280;5107;48.850;8.924;2022-07-01T13:07:38;97232.47;;;20.20;55.81
10135;BME280;5107;48.850;8.924;2022-07-01T13:10:06;97239.44;;;19.96;56.33
10135;BME280;5107;48.850;8.924;2022-07-01T13:12:33;97230.19;;;19.92;57.08
10135;BME280;5107;48.850;8.924;2022-07-01T13:15:03;97234.03;;;20.34;57.02
10135;BME280;5107;48.850;8.924;2022-07-01T13:17:30;97239.78;;;20.38;57.19
10135;BME280;5107;48.850;8.924;2022-07-01T13:19:57;97239.63;;;20.58;55.12
10135;BME280;5107;48.850;8.924;2022-07-01T13:22:24;97224.88;;;20.92;56.32